Time;durP1;ratioP1;P1;durP2;ratioP2;P2;SDS_P1;SDS_P2;PMS_P1;PMS_P2;Temp;Humidity;BMP_temperature;BMP_pressure;BME280_temperature;BME280_humidity;BME280_pressure;Samples;Min_cycle;Max_cycle;Signal;HPM_P1;HPM_P2
2022/11/05 00:09:55;;;;;;;0.30;0.30;;;11.30;99.90;;;;;;4996455;28;20237;-67
2022/11/05 00:18:00;;;;;;;0.40;0.40;;;11.30;99.90;;;;;;4991672;28;20213;-65
2022/11/05 00:20:27;;;;;;;0.47;0.47;;;11.30;99.90;;;;;;4986955;28;20205;-65
2022/11/05 00:25:53;;;;;;;0.40;0.40;;;11.40;99.90;;;;;;4990981;28;20198;-66
2022/11/05 00:28:20;;;;;;;0.40;0.40;;;11.40;99.90;;;;;;4995725;28;20198;-66
2022/11/05 00:30:47;;;;;;;0.87;0.50;;;11.40;99.90;;;;;;4993440;28;20229;-66
2022/11/05 00:33:15;;;;;;;0.50;0.50;;;11.40;99.90;;;;;;4995435;28;20198;-67
2022/11/05 00:35:42;;;;;;;0.50;0.50;;;11.40;99.90;;;;;;4989829;28;20241;-65
2022/11/05 00:38:10;;;;;;;0.50;0.50;;;11.50;99.90;;;;;;4991111;28;20212;-66
2022/11/05 00:40:37;;;;;;;0.30;0.30;;;11.50;99.90;;;;;;4993625;28;20206;-66
2022/11/05 00:45:48;;;;;;;0.40;0.40;;;11.40;99.90;;;;;;4993108;28;20571;-67
2022/11/05 00:51:00;;;;;;;0.47;0.40;;;11.30;99.90;;;;;;4993465;28;20301;-66
2022/11/05 00:53:27;;;;;;;0.40;0.40;;;11.30;99.90;;;;;;4994117;28;20367;-67
2022/11/05 00:55:54;;;;;;;0.50;0.50;;;11.40;99.90;;;;;;4996411;28;20206;-67
2022/11/05 00:58:22;;;;;;;0.57;0.57;;;11.40;99.90;;;;;;4993565;28;20203;-67
2022/11/05 01:00:51;;;;;;;0.50;0.50;;;11.40;99.90;;;;;;4992589;28;20609;-67
2022/11/05 01:03:21;;;;;;;0.67;0.67;;;11.30;99.90;;;;;;4992603;28;20222;-66
2022/11/05 01:05:50;;;;;;;0.63;0.63;;;11.30;99.90;;;;;;4993313;28;20203;-68
2022/11/05 01:08:18;;;;;;;2.80;0.90;;;11.30;99.90;;;;;;4990633;28;20207;-67
2022/11/05 01:10:48;;;;;;;1.13;0.70;;;11.20;99.90;;;;;;4996063;28;20237;-67
2022/11/05 01:13:18;;;;;;;0.80;0.80;;;11.30;99.90;;;;;;4992711;28;20202;-67
2022/11/05 01:15:45;;;;;;;0.80;0.80;;;11.30;99.90;;;;;;5013422;28;20257;-67
2022/11/05 01:18:13;;;;;;;0.70;0.70;;;11.40;99.90;;;;;;5014084;28;20234;-67
2022/11/05 01:20:41;;;;;;;0.50;0.50;;;11.50;99.90;;;;;;5015019;28;20206;-66
2022/11/05 01:23:08;;;;;;;0.70;0.70;;;11.50;99.90;;;;;;5010360;28;20251;-67
2022/11/05 01:25:35;;;;;;;0.90;0.90;;;11.60;99.90;;;;;;5011434;28;20226;-66
2022/11/05 01:28:02;;;;;;;0.70;0.70;;;11.50;99.90;;;;;;5005562;28;20245;-66
2022/11/05 01:30:30;;;;;;;0.97;0.97;;;11.60;99.90;;;;;;4997460;28;20273;-67
2022/11/05 01:32:57;;;;;;;0.80;0.80;;;11.60;99.90;;;;;;4991882;28;20221;-67
2022/11/05 01:35:24;;;;;;;0.70;0.70;;;11.70;99.90;;;;;;4996692;28;20232;-66
2022/11/05 01:37:52;;;;;;;0.80;0.80;;;11.70;99.90;;;;;;4990633;28;20697;-67
2022/11/05 01:40:21;;;;;;;0.60;0.60;;;11.70;99.90;;;;;;4997226;28;20202;-67
2022/11/05 01:42:48;;;;;;;0.70;0.70;;;11.60;99.90;;;;;;4992841;28;20226;-67
2022/11/05 01:45:18;;;;;;;0.60;0.60;;;11.60;99.90;;;;;;4995054;28;20222;-66
2022/11/05 01:47:56;;;;;;;0.47;0.47;;;11.60;99.90;;;;;;4997997;28;21039;-67
2022/11/05 01:50:42;;;;;;;1.07;0.63;;;11.50;99.90;;;;;;4996018;28;20198;-67
2022/11/05 01:53:21;;;;;;;0.50;0.50;;;11.50;99.90;;;;;;4996534;28;20313;-67
2022/11/05 01:55:54;;;;;;;0.50;0.50;;;11.50;99.90;;;;;;4995848;28;20269;-67
2022/11/05 01:58:24;;;;;;;0.50;0.50;;;11.50;99.90;;;;;;4995879;28;20198;-66
2022/11/05 02:00:51;;;;;;;0.50;0.50;;;11.50;99.90;;;;;;4990158;28;20205;-67
2022/11/05 02:03:19;;;;;;;0.50;0.50;;;11.50;99.90;;;;;;4995106;28;20237;-68
2022/11/05 02:05:47;;;;;;;0.50;0.50;;;11.50;99.90;;;;;;4995672;28;20245;-67
2022/11/05 02:08:24;;;;;;;0.70;0.70;;;11.60;99.90;;;;;;4995009;28;20213;-67
2022/11/05 02:10:51;;;;;;;0.60;0.60;;;11.50;99.90;;;;;;4991962;28;20216;-67
2022/11/05 02:13:18;;;;;;;0.60;0.60;;;11.50;99.90;;;;;;4988603;28;20289;-67
2022/11/05 02:15:56;;;;;;;0.80;0.80;;;11.50;99.90;;;;;;4992915;28;20230;-66
2022/11/05 02:18:32;;;;;;;0.70;0.70;;;11.50;99.90;;;;;;4994060;28;20282;-67
2022/11/05 02:21:17;;;;;;;0.80;0.80;;;11.50;99.90;;;;;;4996382;28;20198;-67
2022/11/05 02:24:16;;;;;;;0.67;0.67;;;11.50;99.90;;;;;;4996727;28;20260;-66
2022/11/05 02:27:21;;;;;;;0.53;0.53;;;11.50;99.90;;;;;;4982882;28;20206;-67
2022/11/05 02:30:09;;;;;;;0.60;0.60;;;11.50;99.90;;;;;;4988102;28;20206;-67
2022/11/05 02:33:09;;;;;;;0.60;0.60;;;11.60;99.90;;;;;;4996505;28;20206;-67
2022/11/05 02:36:04;;;;;;;0.70;0.70;;;11.70;99.90;;;;;;4994824;28;20317;-66
2022/11/05 02:38:40;;;;;;;0.60;0.60;;;11.70;99.90;;;;;;4995486;28;20288;-67
2022/11/05 02:41:14;;;;;;;0.70;0.70;;;11.50;99.90;;;;;;4997652;28;20233;-66
2022/11/05 02:43:51;;;;;;;0.60;0.60;;;11.30;99.90;;;;;;4993948;28;20238;-66
2022/11/05 02:46:27;;;;;;;0.60;0.60;;;11.20;99.90;;;;;;4997480;28;20653;-67
2022/11/05 02:49:01;;;;;;;0.70;0.70;;;11.10;99.90;;;;;;4997329;28;20265;-67
2022/11/05 02:51:33;;;;;;;0.70;0.70;;;11.00;99.90;;;;;;4997928;28;20210;-66
2022/11/05 02:54:09;;;;;;;0.80;0.80;;;10.90;99.90;;;;;;4996900;28;20220;-67
2022/11/05 02:56:40;;;;;;;0.70;0.70;;;10.80;99.90;;;;;;4996328;28;20202;-67
2022/11/05 02:59:06;;;;;;;0.80;0.80;;;10.90;99.90;;;;;;4998677;28;20301;-67
2022/11/05 03:01:35;;;;;;;0.80;0.80;;;10.90;99.90;;;;;;4999828;28;20210;-67
2022/11/05 03:04:06;;;;;;;0.77;0.77;;;10.90;99.90;;;;;;4998884;28;20244;-67
2022/11/05 03:07:08;;;;;;;0.70;0.70;;;10.90;99.90;;;;;;4995616;28;20269;-67
2022/11/05 03:10:08;;;;;;;0.80;0.80;;;11.00;99.90;;;;;;4995366;28;20293;-67
2022/11/05 03:12:50;;;;;;;1.10;1.00;;;10.90;99.90;;;;;;4995686;28;20303;-66
2022/11/05 03:15:26;;;;;;;0.80;0.80;;;10.90;99.90;;;;;;4995153;28;20234;-66
2022/11/05 03:18:02;;;;;;;0.67;0.67;;;10.80;99.90;;;;;;4998818;28;20264;-67
2022/11/05 03:20:36;;;;;;;0.70;0.70;;;10.90;99.90;;;;;;4995114;28;20208;-67
2022/11/05 03:23:11;;;;;;;0.60;0.60;;;10.90;99.90;;;;;;4994643;28;20746;-67
2022/11/05 03:25:43;;;;;;;0.53;0.53;;;10.90;99.90;;;;;;4995808;28;20785;-66
2022/11/05 03:28:12;;;;;;;0.70;0.70;;;10.90;99.90;;;;;;4995324;28;20210;-67
2022/11/05 03:30:41;;;;;;;0.60;0.60;;;11.00;99.90;;;;;;4995262;28;20292;-67
2022/11/05 03:33:12;;;;;;;0.67;0.67;;;10.90;99.90;;;;;;4993952;28;20201;-68
2022/11/05 03:35:44;;;;;;;0.67;0.67;;;10.90;99.90;;;;;;4994449;28;20236;-66
2022/11/05 03:38:15;;;;;;;0.60;0.60;;;10.90;99.90;;;;;;4993564;28;20202;-67
2022/11/05 03:40:45;;;;;;;0.53;0.53;;;11.00;99.90;;;;;;4994190;28;20206;-67
2022/11/05 03:43:13;;;;;;;0.40;0.40;;;11.00;99.90;;;;;;4992372;28;20256;-67
2022/11/05 03:45:45;;;;;;;0.70;0.70;;;11.00;99.90;;;;;;4994223;28;20226;-66
2022/11/05 03:48:15;;;;;;;0.57;0.57;;;11.10;99.90;;;;;;5001517;28;20205;-66
2022/11/05 03:50:52;;;;;;;0.70;0.70;;;11.10;99.90;;;;;;5006923;28;20238;-67
2022/11/05 03:53:25;;;;;;;0.50;0.50;;;11.10;99.90;;;;;;5002758;28;20285;-67
2022/11/05 03:55:58;;;;;;;0.50;0.50;;;11.10;99.90;;;;;;5003715;28;20244;-67
2022/11/05 03:58:27;;;;;;;0.50;0.50;;;11.10;99.90;;;;;;5004393;28;20236;-67
2022/11/05 04:00:53;;;;;;;0.57;0.57;;;11.00;99.90;;;;;;5002721;28;20656;-66
2022/11/05 04:03:20;;;;;;;0.70;0.70;;;11.00;99.90;;;;;;4994799;28;20225;-67
2022/11/05 04:13:22;;;;;;;1.23;0.73;;;10.80;99.90;;;;;;4994160;28;20206;-67
2022/11/05 04:14:04;;;;;;;0.50;0.50;;;11.00;99.90;;;;;;4983548;28;20647;-66
2022/11/05 04:24:07;;;;;;;0.50;0.50;;;11.10;99.90;;;;;;4994007;28;20213;-67
2022/11/05 04:24:48;;;;;;;0.80;0.80;;;11.00;99.90;;;;;;4991883;28;20303;-66
2022/11/05 04:27:15;;;;;;;0.77;0.77;;;11.00;99.90;;;;;;4992542;28;20198;-67
2022/11/05 04:32:26;;;;;;;1.00;1.00;;;10.90;99.90;;;;;;4995536;28;20236;-66
2022/11/05 04:34:53;;;;;;;1.43;1.10;;;10.80;99.90;;;;;;4992652;28;20226;-67
2022/11/05 04:37:21;;;;;;;1.13;1.13;;;10.70;99.90;;;;;;4993256;28;20212;-65
2022/11/05 04:39:48;;;;;;;1.20;1.20;;;10.50;99.90;;;;;;4992948;28;20206;-68
2022/11/05 04:42:14;;;;;;;1.13;1.13;;;10.50;99.90;;;;;;4993194;28;20212;-67
2022/11/05 04:44:41;;;;;;;1.57;1.47;;;10.60;99.90;;;;;;4991937;28;20259;-66
2022/11/05 04:47:08;;;;;;;1.60;1.50;;;10.60;99.90;;;;;;4998717;28;20205;-66
2022/11/05 04:49:35;;;;;;;1.70;1.60;;;10.50;99.90;;;;;;4992728;28;20202;-67
2022/11/05 04:52:02;;;;;;;1.70;1.60;;;10.60;99.90;;;;;;4997719;28;20256;-66
2022/11/05 04:54:30;;;;;;;1.70;1.60;;;10.70;99.90;;;;;;4991189;28;20707;-66
2022/11/05 04:56:57;;;;;;;1.70;1.60;;;10.70;99.90;;;;;;4996373;28;20229;-67
2022/11/05 04:59:23;;;;;;;1.90;1.80;;;10.70;99.90;;;;;;4992456;28;20567;-67
2022/11/05 05:01:51;;;;;;;1.70;1.60;;;10.70;99.90;;;;;;4992307;28;20209;-67
2022/11/05 05:04:19;;;;;;;2.03;1.93;;;10.70;99.90;;;;;;4991667;28;20254;-65
2022/11/05 05:06:46;;;;;;;2.07;1.97;;;10.70;99.90;;;;;;4991636;28;20210;-66
2022/11/05 05:09:13;;;;;;;1.90;1.80;;;10.60;99.90;;;;;;4997394;28;20720;-68
2022/11/05 05:11:41;;;;;;;2.00;1.90;;;10.60;99.90;;;;;;4993025;28;20206;-66
2022/11/05 05:14:08;;;;;;;2.07;1.97;;;10.60;99.90;;;;;;4997419;28;20253;-67
2022/11/05 05:16:35;;;;;;;2.30;2.20;;;10.60;99.90;;;;;;5000582;28;20210;-66
2022/11/05 05:19:02;;;;;;;1.90;1.80;;;10.60;99.90;;;;;;4999752;28;20976;-67
2022/11/05 05:21:41;;;;;;;1.77;1.67;;;10.60;99.90;;;;;;4999379;28;20736;-67
2022/11/05 05:24:10;;;;;;;1.93;1.83;;;10.60;99.90;;;;;;4995366;28;20650;-67
2022/11/05 05:26:37;;;;;;;1.90;1.80;;;10.60;99.90;;;;;;4995855;28;20216;-68
2022/11/05 05:29:06;;;;;;;1.90;1.80;;;10.60;99.90;;;;;;4995362;28;20755;-67
2022/11/05 05:31:33;;;;;;;1.70;1.60;;;10.60;99.90;;;;;;4996909;28;20772;-67
2022/11/05 05:34:00;;;;;;;1.97;1.87;;;10.60;99.90;;;;;;5000405;28;20217;-66
2022/11/05 05:36:27;;;;;;;2.30;2.20;;;10.60;99.90;;;;;;5001507;28;20296;-67
2022/11/05 05:38:54;;;;;;;1.93;1.83;;;10.60;99.90;;;;;;5001627;28;20321;-68
2022/11/05 05:41:21;;;;;;;2.10;2.00;;;10.60;99.90;;;;;;4998979;28;20544;-67
2022/11/05 05:43:48;;;;;;;2.10;2.00;;;10.60;99.90;;;;;;4994883;28;20257;-68
2022/11/05 05:46:19;;;;;;;1.90;1.80;;;10.50;99.90;;;;;;4995734;28;20290;-67
2022/11/05 05:48:49;;;;;;;2.03;1.93;;;10.50;99.90;;;;;;4995531;28;20687;-67
2022/11/05 05:51:16;;;;;;;2.00;1.90;;;10.50;99.90;;;;;;4994608;28;20202;-67
2022/11/05 05:53:43;;;;;;;1.80;1.70;;;10.50;99.90;;;;;;4994059;28;20225;-66
2022/11/05 05:56:13;;;;;;;1.87;1.77;;;10.60;99.90;;;;;;4995215;28;20214;-66
2022/11/05 05:58:41;;;;;;;2.20;2.10;;;10.60;99.90;;;;;;4995589;28;20210;-66
2022/11/05 06:01:10;;;;;;;2.07;1.97;;;10.60;99.90;;;;;;4996489;28;20206;-67
2022/11/05 06:03:38;;;;;;;1.90;1.80;;;10.60;99.90;;;;;;4998382;28;20718;-68
2022/11/05 06:06:07;;;;;;;1.60;1.50;;;10.60;99.90;;;;;;4995261;28;20297;-66
2022/11/05 06:08:34;;;;;;;1.93;1.83;;;10.60;99.90;;;;;;5009612;28;20241;-67
2022/11/05 06:11:01;;;;;;;1.83;1.73;;;10.50;99.90;;;;;;5006379;28;20209;-67
2022/11/05 06:13:28;;;;;;;2.00;1.90;;;10.50;99.90;;;;;;5000159;28;20213;-67
2022/11/05 06:16:01;;;;;;;1.60;1.60;;;10.40;99.90;;;;;;5005270;28;20212;-67
2022/11/05 06:18:28;;;;;;;1.93;1.83;;;10.40;99.90;;;;;;5004658;28;20205;-66
2022/11/05 06:21:00;;;;;;;2.00;1.90;;;10.40;99.90;;;;;;5002192;28;20722;-67
2022/11/05 06:23:27;;;;;;;1.60;1.60;;;10.40;99.90;;;;;;5000739;28;20300;-68
2022/11/05 06:25:56;;;;;;;2.07;1.97;;;10.40;99.90;;;;;;5008382;28;20206;-67
2022/11/05 06:28:23;;;;;;;1.80;1.70;;;10.30;99.90;;;;;;4995218;28;20214;-66
2022/11/05 06:30:51;;;;;;;1.80;1.70;;;10.30;99.90;;;;;;5002791;28;20208;-67
2022/11/05 06:33:18;;;;;;;1.87;1.77;;;10.30;99.90;;;;;;4995068;28;20205;-68
2022/11/05 06:35:45;;;;;;;1.90;1.80;;;10.30;99.90;;;;;;4994961;28;20229;-66
2022/11/05 06:38:13;;;;;;;1.80;1.70;;;10.30;99.90;;;;;;4994002;28;20213;-68
2022/11/05 06:40:39;;;;;;;2.00;1.90;;;10.30;99.90;;;;;;5000219;28;20209;-68
2022/11/05 06:43:06;;;;;;;1.70;1.60;;;10.40;99.90;;;;;;5004386;28;20206;-67
2022/11/05 06:45:33;;;;;;;1.53;1.53;;;10.40;99.90;;;;;;4998312;28;20406;-67
2022/11/05 06:48:00;;;;;;;1.80;1.70;;;10.40;99.90;;;;;;5006046;28;20202;-68
2022/11/05 06:50:28;;;;;;;1.50;1.50;;;10.30;99.90;;;;;;4998975;28;20200;-69
2022/11/05 06:52:55;;;;;;;1.37;1.37;;;10.30;99.90;;;;;;4997255;28;20208;-67
2022/11/05 06:55:23;;;;;;;1.80;1.70;;;10.30;99.90;;;;;;5002968;28;20221;-68
2022/11/05 06:57:50;;;;;;;1.80;1.70;;;10.30;99.90;;;;;;4995386;28;20206;-68
2022/11/05 07:00:17;;;;;;;1.83;1.73;;;10.30;99.90;;;;;;5013501;28;20212;-68
2022/11/05 07:02:45;;;;;;;1.67;1.60;;;10.30;99.90;;;;;;5001672;28;20558;-68
2022/11/05 07:05:12;;;;;;;1.60;1.57;;;10.30;99.90;;;;;;5001050;28;20231;-65
2022/11/05 07:07:39;;;;;;;1.40;1.40;;;10.30;99.90;;;;;;5014262;28;20223;-67
2022/11/05 07:10:09;;;;;;;1.60;1.50;;;10.30;99.90;;;;;;4996902;28;20202;-67
2022/11/05 07:12:37;;;;;;;1.40;1.40;;;10.30;99.90;;;;;;5000322;28;20208;-68
2022/11/05 07:15:04;;;;;;;1.40;1.30;;;10.30;99.90;;;;;;4993209;28;20245;-68
2022/11/05 07:17:31;;;;;;;1.40;1.40;;;10.30;99.90;;;;;;4993747;28;20302;-69
2022/11/05 07:19:58;;;;;;;1.33;1.33;;;10.30;99.90;;;;;;4997365;28;20208;-65
2022/11/05 07:22:25;;;;;;;2.13;2.03;;;10.40;99.90;;;;;;5007519;28;20213;-68
2022/11/05 07:24:51;;;;;;;5.53;5.23;;;10.30;99.90;;;;;;4991943;28;20576;-67
2022/11/05 07:27:18;;;;;;;2.00;1.90;;;10.30;99.90;;;;;;4994323;28;20202;-65
2022/11/05 07:29:46;;;;;;;2.17;2.07;;;10.40;99.90;;;;;;4997015;28;20313;-67
2022/11/05 07:32:13;;;;;;;1.30;1.30;;;10.40;99.90;;;;;;4982993;28;20297;-67
2022/11/05 07:34:40;;;;;;;2.10;2.00;;;10.40;99.90;;;;;;4997073;28;20225;-68
2022/11/05 07:37:07;;;;;;;1.53;1.50;;;10.40;99.90;;;;;;4993692;28;20212;-67
2022/11/05 07:39:34;;;;;;;2.43;2.23;;;10.40;99.90;;;;;;4984661;28;20220;-68
2022/11/05 07:42:00;;;;;;;1.87;1.53;;;10.40;99.90;;;;;;4987501;28;20212;-69
2022/11/05 07:44:27;;;;;;;1.40;1.40;;;10.50;99.90;;;;;;4992403;28;20230;-66
2022/11/05 07:46:55;;;;;;;1.37;1.37;;;10.50;99.90;;;;;;4993061;28;20251;-67
2022/11/05 07:49:22;;;;;;;1.30;1.30;;;10.50;99.90;;;;;;4994020;28;20890;-68
2022/11/05 07:51:49;;;;;;;1.20;1.20;;;10.50;99.90;;;;;;4996150;28;20205;-66
2022/11/05 07:54:16;;;;;;;1.47;1.47;;;10.50;99.90;;;;;;4991236;28;20218;-68
2022/11/05 07:56:43;;;;;;;1.27;1.27;;;10.50;99.90;;;;;;4994352;28;20228;-67
2022/11/05 07:59:10;;;;;;;1.30;1.30;;;10.60;99.90;;;;;;4993167;28;20194;-68
2022/11/05 08:01:37;;;;;;;1.80;1.70;;;10.60;99.90;;;;;;4990260;28;20268;-69
2022/11/05 08:04:05;;;;;;;1.23;1.23;;;10.60;99.90;;;;;;4999198;28;20228;-66
2022/11/05 08:06:32;;;;;;;1.40;1.40;;;10.60;99.90;;;;;;4993507;28;20595;-67
2022/11/05 08:08:58;;;;;;;1.67;1.50;;;10.60;99.90;;;;;;4991762;28;20210;-66
2022/11/05 08:11:25;;;;;;;1.50;1.40;;;10.60;99.90;;;;;;4992675;28;20566;-66
2022/11/05 08:13:52;;;;;;;1.60;1.50;;;10.60;99.90;;;;;;4989215;28;20237;-67
2022/11/05 08:16:19;;;;;;;1.70;1.60;;;10.50;99.90;;;;;;4999889;28;20198;-68
2022/11/05 08:18:47;;;;;;;1.70;1.60;;;10.60;99.90;;;;;;4985509;28;20206;-65
2022/11/05 08:21:15;;;;;;;1.70;1.60;;;10.60;99.90;;;;;;4982883;28;20202;-66
2022/11/05 08:23:42;;;;;;;1.80;1.70;;;10.60;99.90;;;;;;4994308;28;20214;-65
2022/11/05 08:26:10;;;;;;;1.87;1.77;;;10.70;99.90;;;;;;4995354;28;20743;-67
2022/11/05 08:28:37;;;;;;;1.90;1.80;;;10.60;99.90;;;;;;4998377;28;20237;-66
2022/11/05 08:31:04;;;;;;;1.80;1.70;;;10.70;99.90;;;;;;5000140;28;20209;-68
2022/11/05 08:33:31;;;;;;;2.30;2.20;;;10.70;99.90;;;;;;4996759;28;20208;-66
2022/11/05 08:36:02;;;;;;;1.90;1.80;;;10.70;99.90;;;;;;4999759;28;20293;-67
2022/11/05 08:38:31;;;;;;;2.00;1.90;;;10.80;99.90;;;;;;5004075;28;20207;-68
2022/11/05 08:40:59;;;;;;;2.17;2.07;;;10.80;99.90;;;;;;4994103;28;20202;-65
2022/11/05 08:43:27;;;;;;;2.30;2.20;;;10.80;99.90;;;;;;4994831;28;20617;-67
2022/11/05 08:45:54;;;;;;;2.33;2.13;;;10.90;99.90;;;;;;4994345;28;20236;-68
2022/11/05 08:48:21;;;;;;;2.57;2.47;;;10.90;99.90;;;;;;4994944;28;20202;-67
2022/11/05 08:50:48;;;;;;;2.60;2.50;;;10.80;99.90;;;;;;4996995;28;20297;-65
2022/11/05 08:53:15;;;;;;;2.63;2.53;;;10.70;99.90;;;;;;4996052;28;20205;-66
2022/11/05 08:55:46;;;;;;;2.70;2.60;;;10.60;99.90;;;;;;4996208;28;20224;-66
2022/11/05 08:58:15;;;;;;;3.07;2.87;;;10.50;99.90;;;;;;4992225;28;20236;-66
2022/11/05 09:00:44;;;;;;;2.77;2.67;;;10.50;99.90;;;;;;4992435;28;20592;-67
2022/11/05 09:03:11;;;;;;;2.77;2.67;;;10.60;99.90;;;;;;4991899;28;20218;-66
2022/11/05 09:05:40;;;;;;;2.53;2.40;;;10.70;99.90;;;;;;4994803;28;20228;-69
2022/11/05 09:08:09;;;;;;;2.47;2.37;;;10.70;99.90;;;;;;4995900;28;20305;-66
2022/11/05 09:10:36;;;;;;;2.83;2.63;;;10.60;99.90;;;;;;4989210;28;20211;-68
2022/11/05 09:13:05;;;;;;;2.77;2.57;;;10.70;99.90;;;;;;4993884;28;20210;-70
2022/11/05 09:15:34;;;;;;;2.43;2.33;;;10.70;99.90;;;;;;5014824;28;20296;-67
2022/11/05 09:18:01;;;;;;;2.30;2.20;;;10.60;99.90;;;;;;4992117;28;20293;-68
2022/11/05 09:20:28;;;;;;;2.80;2.60;;;10.70;99.90;;;;;;4993851;28;20229;-67
2022/11/05 09:22:55;;;;;;;2.60;2.50;;;10.80;99.90;;;;;;4990366;28;20293;-67
2022/11/05 09:25:22;;;;;;;2.60;2.40;;;10.90;99.90;;;;;;4997654;28;20756;-66
2022/11/05 09:27:49;;;;;;;2.43;2.33;;;10.80;99.90;;;;;;5000110;28;20202;-66
2022/11/05 09:30:17;;;;;;;2.60;2.50;;;10.90;99.90;;;;;;4995983;28;20240;-66
2022/11/05 09:32:44;;;;;;;2.93;2.73;;;11.00;99.90;;;;;;4995831;28;20232;-66
2022/11/05 09:35:11;;;;;;;2.30;2.20;;;11.10;99.90;;;;;;4995240;28;20217;-67
2022/11/05 09:37:38;;;;;;;2.57;2.37;;;11.20;99.90;;;;;;4991068;28;20217;-67
2022/11/05 09:40:06;;;;;;;2.50;2.40;;;11.20;99.90;;;;;;4995392;28;20654;-65
2022/11/05 09:42:37;;;;;;;2.70;2.50;;;11.20;99.90;;;;;;4995435;28;20216;-66
2022/11/05 09:45:08;;;;;;;2.70;2.60;;;11.20;99.90;;;;;;4986920;28;20233;-67
2022/11/05 09:47:40;;;;;;;2.60;2.50;;;11.30;99.90;;;;;;4993448;28;20305;-65
2022/11/05 09:50:14;;;;;;;2.67;2.47;;;11.30;99.90;;;;;;4994597;28;20967;-66
2022/11/05 09:52:41;;;;;;;2.40;2.30;;;11.10;99.90;;;;;;4994607;28;20208;-67
2022/11/05 09:55:18;;;;;;;2.60;2.40;;;11.00;99.90;;;;;;4992822;28;20256;-66
2022/11/05 09:57:48;;;;;;;2.60;2.50;;;10.90;99.90;;;;;;4993286;28;20213;-66
2022/11/05 10:00:16;;;;;;;2.30;2.20;;;11.10;99.90;;;;;;4994671;28;20241;-66
2022/11/05 10:02:48;;;;;;;2.40;2.30;;;11.20;99.90;;;;;;4990238;28;20202;-66
2022/11/05 10:05:17;;;;;;;2.30;2.20;;;11.30;99.90;;;;;;4993782;28;20261;-66
2022/11/05 10:07:47;;;;;;;2.00;1.90;;;11.30;99.90;;;;;;4995497;28;20232;-66
2022/11/05 10:10:26;;;;;;;2.27;2.17;;;11.40;99.90;;;;;;4992936;28;20217;-66
2022/11/05 10:12:56;;;;;;;2.20;2.10;;;11.40;99.90;;;;;;4994497;28;20202;-66
2022/11/05 10:15:28;;;;;;;2.70;2.50;;;11.30;99.90;;;;;;4998082;28;20293;-67
2022/11/05 10:18:02;;;;;;;2.10;2.00;;;11.30;99.90;;;;;;4995712;28;20771;-65
2022/11/05 10:20:33;;;;;;;2.10;2.00;;;11.30;99.90;;;;;;4992078;28;20297;-65
2022/11/05 10:23:08;;;;;;;2.20;2.10;;;11.30;99.90;;;;;;4993943;28;20239;-65
2022/11/05 10:25:39;;;;;;;2.00;1.90;;;11.20;99.90;;;;;;4995486;28;20246;-65
2022/11/05 10:28:07;;;;;;;2.10;2.00;;;11.30;99.90;;;;;;4987935;28;20293;-66
2022/11/05 10:30:34;;;;;;;2.00;1.90;;;11.20;99.90;;;;;;4995928;28;20220;-66
2022/11/05 10:33:06;;;;;;;2.50;2.30;;;11.20;99.90;;;;;;4993138;28;20265;-66
2022/11/05 10:35:38;;;;;;;2.00;1.90;;;11.20;99.90;;;;;;4990751;28;20230;-66
2022/11/05 10:38:05;;;;;;;2.30;2.10;;;11.30;99.90;;;;;;4996350;28;20202;-65
2022/11/05 10:40:41;;;;;;;2.33;2.13;;;11.30;99.90;;;;;;4988853;28;20675;-66
2022/11/05 10:43:12;;;;;;;2.20;2.10;;;11.40;99.90;;;;;;4998745;28;20292;-66
2022/11/05 10:45:47;;;;;;;2.00;1.90;;;11.40;99.90;;;;;;4996827;28;20956;-65
2022/11/05 10:48:32;;;;;;;1.97;1.87;;;11.50;99.90;;;;;;4995529;28;20291;-65
2022/11/05 10:50:59;;;;;;;2.30;2.10;;;11.50;99.90;;;;;;4998338;28;20210;-66
2022/11/05 10:53:30;;;;;;;2.17;2.07;;;11.50;99.90;;;;;;4990395;28;20604;-66
2022/11/05 10:55:58;;;;;;;2.40;2.20;;;11.50;99.90;;;;;;4989056;28;20652;-67
2022/11/05 10:58:28;;;;;;;2.70;2.50;;;11.40;99.90;;;;;;4993949;28;20612;-66
2022/11/05 11:01:05;;;;;;;2.10;1.90;;;11.50;99.90;;;;;;4992404;28;20206;-67
2022/11/05 11:03:43;;;;;;;2.10;1.90;;;11.60;99.90;;;;;;4994657;28;20288;-66
2022/11/05 11:06:20;;;;;;;1.60;1.50;;;11.80;99.90;;;;;;4995424;28;20213;-67
2022/11/05 11:08:49;;;;;;;1.90;1.70;;;11.90;99.90;;;;;;4995451;28;20289;-65
2022/11/05 11:11:26;;;;;;;1.80;1.70;;;12.00;99.90;;;;;;5006930;23;20718;-63
2022/11/05 11:14:01;;;;;;;1.97;1.87;;;12.10;99.90;;;;;;5004047;28;20205;-63
2022/11/05 11:16:33;;;;;;;1.70;1.60;;;12.30;99.90;;;;;;5007968;28;20196;-63
2022/11/05 11:19:02;;;;;;;1.80;1.70;;;12.30;99.90;;;;;;5013512;28;20224;-66
2022/11/05 11:21:30;;;;;;;1.70;1.60;;;12.30;99.90;;;;;;5013256;28;20221;-63
2022/11/05 11:23:58;;;;;;;1.97;1.87;;;12.20;99.90;;;;;;5012723;28;20201;-62
2022/11/05 11:26:27;;;;;;;1.80;1.70;;;12.20;99.90;;;;;;5013029;28;20582;-64
2022/11/05 11:28:58;;;;;;;1.80;1.70;;;12.30;99.90;;;;;;5005467;28;20621;-64
2022/11/05 11:31:27;;;;;;;1.73;1.63;;;12.50;99.90;;;;;;5013060;28;20676;-63
2022/11/05 11:33:59;;;;;;;1.70;1.60;;;12.60;99.90;;;;;;5012992;28;20208;-63
2022/11/05 11:36:34;;;;;;;1.67;1.57;;;12.80;99.90;;;;;;5013620;28;20292;-65
2022/11/05 11:39:04;;;;;;;1.67;1.57;;;12.80;99.90;;;;;;5014118;28;20211;-64
2022/11/05 11:41:34;;;;;;;2.00;1.90;;;13.00;99.90;;;;;;5013712;28;20228;-64
2022/11/05 11:44:06;;;;;;;1.50;1.50;;;13.30;99.90;;;;;;5011582;28;20239;-63
2022/11/05 11:46:35;;;;;;;1.40;1.40;;;13.40;99.90;;;;;;5009341;28;20229;-64
2022/11/05 11:49:02;;;;;;;1.60;1.50;;;13.50;99.90;;;;;;5015621;28;20205;-64
2022/11/05 11:51:35;;;;;;;1.93;1.83;;;13.40;99.90;;;;;;5013694;28;20308;-64
2022/11/05 11:54:04;;;;;;;1.60;1.50;;;13.20;99.90;;;;;;5012533;28;20202;-64
2022/11/05 11:56:43;;;;;;;1.67;1.57;;;13.00;99.90;;;;;;5007459;28;20276;-65
2022/11/05 11:59:20;;;;;;;1.60;1.50;;;12.90;99.90;;;;;;5012924;28;20569;-63
2022/11/05 12:02:16;;;;;;;1.50;1.40;;;12.80;99.90;;;;;;5009458;28;20963;-62
2022/11/05 12:04:59;;;;;;;1.33;1.33;;;12.70;99.90;;;;;;5011724;28;20212;-66
2022/11/05 12:07:42;;;;;;;1.30;1.30;;;12.60;99.90;;;;;;5015581;28;20203;-62
2022/11/05 12:10:20;;;;;;;1.67;1.57;;;12.60;99.90;;;;;;5012424;28;20236;-67
2022/11/05 12:12:56;;;;;;;1.57;1.47;;;12.50;99.90;;;;;;5013019;28;20545;-64
2022/11/05 12:15:35;;;;;;;1.67;1.57;;;12.50;99.90;;;;;;5005997;28;20303;-64
2022/11/05 12:18:04;;;;;;;1.67;1.57;;;12.50;99.90;;;;;;5012397;28;20197;-63
2022/11/05 12:20:47;;;;;;;1.40;1.40;;;12.50;99.90;;;;;;5007624;28;20221;-65
2022/11/05 12:23:31;;;;;;;1.67;1.57;;;12.60;99.90;;;;;;5012271;28;20209;-64
2022/11/05 12:26:05;;;;;;;1.80;1.70;;;12.60;99.90;;;;;;5012504;28;20225;-66
2022/11/05 12:28:45;;;;;;;1.80;1.70;;;12.60;99.90;;;;;;5012370;28;20215;-65
2022/11/05 12:31:22;;;;;;;2.17;1.50;;;12.60;99.90;;;;;;5012577;28;20221;-64
2022/11/05 12:34:01;;;;;;;1.80;1.70;;;12.60;99.90;;;;;;5011853;28;20292;-64
2022/11/05 12:36:50;;;;;;;1.33;1.33;;;12.70;99.90;;;;;;5012751;28;20576;-64
2022/11/05 12:39:43;;;;;;;1.87;1.77;;;12.60;99.90;;;;;;5005140;28;20570;-64
2022/11/05 12:42:25;;;;;;;1.70;1.60;;;12.50;99.90;;;;;;5012156;28;20209;-64
2022/11/05 12:45:01;;;;;;;1.50;1.40;;;12.50;99.90;;;;;;5012034;28;20722;-65
2022/11/05 12:47:44;;;;;;;2.00;1.90;;;12.50;99.90;;;;;;5012501;28;20208;-65
2022/11/05 12:50:20;;;;;;;1.90;1.80;;;12.40;99.90;;;;;;5013403;28;20227;-64
2022/11/05 12:53:10;;;;;;;1.80;1.70;;;12.30;99.90;;;;;;5009501;28;20216;-63
2022/11/05 12:55:41;;;;;;;1.50;1.40;;;12.30;99.90;;;;;;5015150;28;20619;-63
2022/11/05 12:58:13;;;;;;;1.47;1.40;;;12.30;99.90;;;;;;5013181;28;20231;-63
2022/11/05 13:00:44;;;;;;;1.40;1.30;;;12.30;99.90;;;;;;5012489;28;20232;-64
2022/11/05 13:03:27;;;;;;;1.50;1.40;;;12.40;99.90;;;;;;5011427;28;20201;-64
2022/11/05 13:05:59;;;;;;;1.40;1.30;;;12.30;99.90;;;;;;5012291;28;20218;-64
2022/11/05 13:08:30;;;;;;;1.50;1.40;;;12.30;99.90;;;;;;5018825;28;20667;-63
2022/11/05 13:11:03;;;;;;;1.30;1.30;;;12.30;99.90;;;;;;5026508;28;20237;-64
2022/11/05 13:13:37;;;;;;;1.50;1.40;;;12.40;99.90;;;;;;5018140;28;20207;-63
2022/11/05 13:16:10;;;;;;;1.67;1.57;;;12.30;99.90;;;;;;5016604;28;20193;-63
2022/11/05 13:18:43;;;;;;;1.33;1.23;;;12.50;99.90;;;;;;5008468;28;20216;-64
2022/11/05 13:21:11;;;;;;;1.20;1.20;;;12.60;99.90;;;;;;5021258;28;20236;-63
2022/11/05 13:23:43;;;;;;;1.50;1.40;;;12.60;99.90;;;;;;5012496;28;20213;-64
2022/11/05 13:26:16;;;;;;;1.10;1.10;;;12.70;99.90;;;;;;5015565;28;20293;-64
2022/11/05 13:28:48;;;;;;;1.20;1.20;;;12.60;99.90;;;;;;5011648;28;20198;-65
2022/11/05 13:31:31;;;;;;;1.37;1.27;;;12.50;99.90;;;;;;5004156;28;20232;-64
2022/11/05 13:34:02;;;;;;;1.30;1.20;;;12.40;99.90;;;;;;5011730;28;20691;-62
2022/11/05 13:39:22;;;;;;;1.37;1.30;;;12.30;99.90;;;;;;5015334;28;20580;-64
2022/11/05 13:42:11;;;;;;;1.10;1.10;;;12.30;99.90;;;;;;5015333;28;20229;-63
2022/11/05 13:45:01;;;;;;;1.30;1.20;;;12.20;99.90;;;;;;5009977;28;20575;-64
2022/11/05 13:47:57;;;;;;;1.10;1.10;;;12.20;99.90;;;;;;5027404;28;20208;-63